Time;durP1;ratioP1;P1;durP2;ratioP2;P2;SDS_P1;SDS_P2;PMS_P1;PMS_P2;Temp;Humidity;BMP_temperature;BMP_pressure;BME280_temperature;BME280_humidity;BME280_pressure;Samples;Min_cycle;Max_cycle;Signal;HPM_P1;HPM_P2
2022/01/26 00:00:02;;;;;;;0.40;0.20;;;;;;;4.98;100.00;102429.81;4999468;28;20571;-75
2022/01/26 00:07:57;;;;;;;0.40;0.20;;;;;;;4.92;100.00;102423.47;5071509;28;20472;-74
2022/01/26 00:10:24;;;;;;;0.40;0.30;;;;;;;4.92;100.00;102422.66;5074464;28;20499;-74
2022/01/26 00:12:51;;;;;;;0.40;0.30;;;;;;;4.89;100.00;102417.72;5074294;28;20946;-75
2022/01/26 00:15:19;;;;;;;0.40;0.30;;;;;;;4.89;100.00;102423.06;5073531;28;20994;-75
2022/01/26 00:17:47;;;;;;;0.40;0.20;;;;;;;4.90;100.00;102416.66;5074111;28;20476;-74
2022/01/26 00:20:20;;;;;;;0.40;0.30;;;;;;;4.92;100.00;102423.47;5074433;28;20481;-74
2022/01/26 00:23:01;;;;;;;0.40;0.30;;;;;;;4.94;100.00;102425.94;5074319;28;20468;-75
2022/01/26 00:25:39;;;;;;;0.40;0.20;;;;;;;4.95;100.00;102427.56;5073865;28;20920;-74
2022/01/26 00:39:09;;;;;;;1.23;1.23;;;;;;;4.97;100.00;102412.06;5073930;28;20405;-76
2022/01/26 00:41:37;;;;;;;0.40;0.20;;;;;;;4.95;100.00;102411.44;5074011;28;20478;-74
2022/01/26 00:44:06;;;;;;;0.40;0.30;;;;;;;4.95;100.00;102411.44;5073949;28;20534;-75
2022/01/26 00:46:36;;;;;;;0.40;0.20;;;;;;;4.96;100.00;102418.50;5073892;28;20469;-74
2022/01/26 00:49:02;;;;;;;0.40;0.20;;;;;;;4.98;100.00;102417.22;5073890;28;20521;-75
2022/01/26 00:51:29;;;;;;;0.50;0.40;;;;;;;5.01;100.00;102407.91;5073849;28;20449;-75
2022/01/26 00:54:02;;;;;;;0.40;0.30;;;;;;;5.01;100.00;102413.28;5073828;28;20441;-72
2022/01/26 00:56:28;;;;;;;0.40;0.20;;;;;;;5.00;100.00;102417.00;5073662;28;20465;-73
2022/01/26 00:58:55;;;;;;;0.40;0.30;;;;;;;4.95;100.00;102416.81;5073781;28;20437;-73
2022/01/26 01:01:22;;;;;;;0.40;0.30;;;;;;;4.94;100.00;102424.06;5073681;28;20480;-73
2022/01/26 01:03:50;;;;;;;0.40;0.30;;;;;;;4.96;100.00;102422.00;5073250;28;20477;-73
2022/01/26 01:06:21;;;;;;;0.40;0.20;;;;;;;4.95;100.00;102424.88;5073243;28;20846;-74
2022/01/26 01:08:48;;;;;;;0.40;0.20;;;;;;;4.94;100.00;102424.06;5073580;28;20461;-73
2022/01/26 01:11:15;;;;;;;0.40;0.20;;;;;;;4.95;100.00;102423.00;5073543;28;20433;-73
2022/01/26 01:13:43;;;;;;;0.40;0.30;;;;;;;4.92;100.00;102430.72;5073518;28;20441;-73
2022/01/26 01:16:12;;;;;;;0.40;0.30;;;;;;;4.96;100.00;102434.59;5073120;28;20473;-73
2022/01/26 01:18:44;;;;;;;0.40;0.30;;;;;;;4.92;100.00;102428.84;5072688;28;20798;-72
2022/01/26 01:21:50;;;;;;;0.40;0.30;;;;;;;4.94;100.00;102432.13;5053456;28;20433;-74
2022/01/26 01:24:39;;;;;;;0.40;0.30;;;;;;;4.89;100.00;102423.06;5052872;28;20481;-73
2022/01/26 01:27:42;;;;;;;0.40;0.20;;;;;;;4.88;100.00;102426.81;5052956;28;20480;-72
2022/01/26 01:30:22;;;;;;;0.40;0.20;;;;;;;4.89;100.00;102428.44;5053324;28;20433;-72
2022/01/26 01:33:03;;;;;;;0.50;0.30;;;;;;;4.89;100.00;102428.44;5053279;28;20441;-73
2022/01/26 01:35:31;;;;;;;0.40;0.30;;;;;;;4.86;100.00;102420.81;5052944;28;20461;-73
2022/01/26 01:38:08;;;;;;;0.40;0.20;;;;;;;4.87;100.00;102419.78;5053185;28;20442;-72
2022/01/26 01:40:34;;;;;;;0.40;0.23;;;;;;;4.79;100.00;102408.28;5053199;28;20437;-73
2022/01/26 01:43:01;;;;;;;0.40;0.20;;;;;;;4.77;100.00;102417.56;5053060;28;20912;-72
2022/01/26 01:45:33;;;;;;;0.40;0.30;;;;;;;4.79;100.00;102416.31;5052764;28;20935;-72
2022/01/26 01:47:59;;;;;;;0.40;0.30;;;;;;;4.73;100.00;102414.50;5053109;28;20446;-72
2022/01/26 01:50:26;;;;;;;0.40;0.20;;;;;;;4.76;100.00;102414.06;5053041;28;20454;-71
2022/01/26 01:52:59;;;;;;;0.40;0.20;;;;;;;4.75;100.00;102411.59;5052759;28;20812;-72
2022/01/26 01:55:28;;;;;;;0.50;0.43;;;;;;;4.75;100.00;102403.56;5052990;28;20431;-72
2022/01/26 01:57:54;;;;;;;0.40;0.20;;;;;;;4.74;100.00;102409.97;5052679;28;20986;-72
2022/01/26 02:00:21;;;;;;;0.40;0.30;;;;;;;4.73;100.00;102405.63;5052981;28;20461;-72
2022/01/26 02:02:47;;;;;;;0.40;0.30;;;;;;;4.71;100.00;102397.78;5052901;28;20482;-72
2022/01/26 02:05:14;;;;;;;0.40;0.20;;;;;;;4.71;100.00;102392.44;5052859;28;20438;-72
2022/01/26 02:07:40;;;;;;;0.40;0.20;;;;;;;4.72;100.00;102401.28;5052941;28;20446;-72
2022/01/26 02:10:09;;;;;;;0.40;0.30;;;;;;;4.69;100.00;102393.66;5052905;28;20446;-73
2022/01/26 02:12:41;;;;;;;0.63;0.60;;;;;;;4.69;100.00;102385.63;5052589;28;20944;-73
2022/01/26 02:15:17;;;;;;;0.40;0.20;;;;;;;4.70;100.00;102381.91;5052862;28;20477;-73
2022/01/26 02:18:08;;;;;;;0.40;0.30;;;;;;;4.72;100.00;102375.28;5052867;28;20441;-73
2022/01/26 02:20:54;;;;;;;0.40;0.30;;;;;;;4.72;100.00;102374.47;5052937;28;20449;-72
2022/01/26 02:51:11;;;;;;;0.40;0.23;;;;;;;4.53;100.00;102371.69;5056020;28;20502;-72
2022/01/26 02:54:01;;;;;;;2.00;1.90;;;;;;;4.47;100.00;102361.84;5056159;28;20524;-73
2022/01/26 02:56:38;;;;;;;0.40;0.30;;;;;;;4.50;100.00;102365.94;5056020;28;20473;-72
2022/01/26 02:59:25;;;;;;;0.40;0.30;;;;;;;4.46;100.00;102367.41;5056029;28;20434;-72
2022/01/26 03:01:55;;;;;;;0.40;0.20;;;;;;;4.45;100.00;102358.53;5056004;28;20466;-73
2022/01/26 03:04:30;;;;;;;0.40;0.30;;;;;;;4.43;100.00;102351.75;5056124;28;20485;-72
2022/01/26 03:07:03;;;;;;;0.40;0.30;;;;;;;4.41;100.00;102357.31;5055844;28;20482;-73
2022/01/26 03:09:35;;;;;;;0.40;0.20;;;;;;;4.45;100.00;102368.44;5055843;28;20529;-73
2022/01/26 03:12:04;;;;;;;0.40;0.30;;;;;;;4.41;100.00;102365.38;5055839;28;20530;-73
2022/01/26 03:14:39;;;;;;;0.40;0.30;;;;;;;4.42;100.00;102358.97;5055698;28;20442;-73
2022/01/26 03:17:15;;;;;;;0.40;0.20;;;;;;;4.41;100.00;102351.13;5055630;28;20476;-72
2022/01/26 03:19:45;;;;;;;0.40;0.20;;;;;;;4.42;100.00;102353.59;5055679;28;20427;-72
2022/01/26 03:30:47;;;;;;;0.40;0.20;;;;;;;4.40;100.00;102350.31;5055342;28;20410;-73
2022/01/26 03:33:25;;;;;;;0.40;0.30;;;;;;;4.37;100.00;102349.91;5055401;28;20431;-75
2022/01/26 03:35:55;;;;;;;0.40;0.30;;;;;;;4.27;100.00;102350.41;5055035;28;20474;-73
2022/01/26 03:38:26;;;;;;;0.40;0.30;;;;;;;4.26;100.00;102341.53;5055330;28;20423;-72
2022/01/26 03:41:10;;;;;;;2.20;1.37;;;;;;;4.31;100.00;102343.56;5055309;28;20429;-73
2022/01/26 03:43:37;;;;;;;0.40;0.30;;;;;;;4.30;100.00;102345.44;5055128;28;20561;-73
2022/01/26 03:46:03;;;;;;;0.40;0.30;;;;;;;4.33;100.00;102343.34;5055061;28;20454;-73
2022/01/26 03:48:30;;;;;;;14.40;9.30;;;;;;;4.33;100.00;102335.28;5055129;28;20799;-73
2022/01/26 03:50:56;;;;;;;0.40;0.20;;;;;;;4.37;100.00;102342.69;5054838;28;20453;-74
2022/01/26 03:53:23;;;;;;;0.40;0.20;;;;;;;4.39;100.00;102340.63;5055056;28;20446;-76
2022/01/26 03:55:49;;;;;;;0.40;0.30;;;;;;;4.37;100.00;102339.19;5067892;28;20500;-71
2022/01/26 03:58:17;;;;;;;0.40;0.20;;;;;;;4.39;100.00;102343.31;5074919;28;20461;-71
2022/01/26 04:00:44;;;;;;;0.40;0.20;;;;;;;4.40;100.00;102338.75;5074845;28;20528;-71
2022/01/26 04:03:10;;;;;;;0.50;0.20;;;;;;;4.37;100.00;102342.69;5074735;28;20532;-71
2022/01/26 04:05:37;;;;;;;0.40;0.30;;;;;;;4.34;100.00;102337.78;5074760;28;20457;-71
2022/01/26 04:08:09;;;;;;;0.40;0.30;;;;;;;4.31;100.00;102335.50;5074711;28;20444;-71
2022/01/26 04:10:46;;;;;;;0.40;0.20;;;;;;;4.33;100.00;102330.75;5074628;28;20430;-70
2022/01/26 04:13:12;;;;;;;0.40;0.30;;;;;;;4.35;100.00;102333.22;5074674;28;20479;-70
2022/01/26 04:15:40;;;;;;;0.40;0.20;;;;;;;4.34;100.00;102328.88;5074497;28;20461;-72
2022/01/26 04:18:15;;;;;;;0.40;0.30;;;;;;;4.32;100.00;102331.78;5074528;28;20453;-72
2022/01/26 04:20:46;;;;;;;0.40;0.30;;;;;;;4.33;100.00;102335.28;5074424;28;20431;-72
2022/01/26 04:23:18;;;;;;;0.40;0.20;;;;;;;4.29;100.00;102329.53;5074420;28;20461;-71
2022/01/26 04:25:46;;;;;;;0.40;0.20;;;;;;;4.33;100.00;102332.59;5074326;28;20865;-71
2022/01/26 04:28:18;;;;;;;0.40;0.30;;;;;;;4.31;100.00;102346.25;5074399;28;20450;-71
2022/01/26 04:30:46;;;;;;;0.40;0.20;;;;;;;4.25;100.00;102339.03;5074336;28;20457;-71
2022/01/26 04:33:12;;;;;;;0.40;0.30;;;;;;;4.24;100.00;102326.69;5062533;28;20473;-71
2022/01/26 04:35:43;;;;;;;0.50;0.30;;;;;;;4.18;100.00;102331.06;5053851;28;20485;-71
2022/01/26 04:38:17;;;;;;;0.40;0.20;;;;;;;4.16;100.00;102334.97;5053896;28;20916;-71
2022/01/26 04:40:52;;;;;;;0.40;0.30;;;;;;;4.12;100.00;102334.59;5053871;28;20907;-71
2022/01/26 04:43:23;;;;;;;0.40;0.27;;;;;;;4.13;100.00;102324.69;5054001;28;20474;-71
2022/01/26 04:45:51;;;;;;;0.40;0.20;;;;;;;4.13;100.00;102333.56;5053977;28;20472;-71
2022/01/26 04:48:18;;;;;;;0.40;0.20;;;;;;;4.12;100.00;102326.56;5053881;28;20442;-71
2022/01/26 04:50:45;;;;;;;0.40;0.20;;;;;;;4.14;100.00;102323.66;5053905;28;20450;-71
2022/01/26 04:53:11;;;;;;;0.40;0.30;;;;;;;4.15;100.00;102322.59;5053937;28;20442;-71
2022/01/26 04:55:38;;;;;;;0.50;0.33;;;;;;;4.17;100.00;102325.91;5053777;28;20852;-70
2022/01/26 04:58:04;;;;;;;0.40;0.30;;;;;;;4.16;100.00;102327.78;5053810;28;20445;-70
2022/01/26 05:00:31;;;;;;;0.40;0.30;;;;;;;4.12;100.00;102325.72;5053791;28;20556;-70
2022/01/26 05:02:59;;;;;;;0.40;0.20;;;;;;;4.14;100.00;102320.97;5053130;28;20453;-70
2022/01/26 05:05:25;;;;;;;0.40;0.30;;;;;;;4.16;100.00;102324.25;5053611;28;20457;-70
2022/01/26 05:07:52;;;;;;;0.60;0.30;;;;;;;4.13;100.00;102317.47;5053642;28;20449;-70
2022/01/26 05:10:19;;;;;;;1.13;1.13;;;;;;;4.09;100.00;102321.63;5053542;28;20446;-70
2022/01/26 05:12:45;;;;;;;0.40;0.20;;;;;;;4.07;100.00;102320.16;5053239;28;20952;-70
2022/01/26 05:15:12;;;;;;;0.40;0.30;;;;;;;4.07;100.00;102312.94;5059235;28;20469;-70
2022/01/26 05:17:40;;;;;;;0.40;0.30;;;;;;;4.01;100.00;102313.81;5073168;28;20969;-70
2022/01/26 05:20:10;;;;;;;0.40;0.20;;;;;;;3.97;100.00;102310.72;5069274;28;20457;-70
2022/01/26 05:22:39;;;;;;;0.40;0.30;;;;;;;3.93;100.00;102309.50;5053365;28;20477;-70
2022/01/26 05:25:06;;;;;;;0.40;0.30;;;;;;;3.92;100.00;102307.06;5053322;28;20486;-70
2022/01/26 05:27:32;;;;;;;0.40;0.20;;;;;;;3.93;100.00;102308.69;5053265;28;20454;-70
2022/01/26 05:29:59;;;;;;;0.40;0.20;;;;;;;3.90;100.00;102312.66;5053287;28;20487;-70
2022/01/26 05:32:26;;;;;;;0.40;0.30;;;;;;;3.86;100.00;102313.28;5053239;28;20496;-72
2022/01/26 05:34:52;;;;;;;0.40;0.30;;;;;;;3.84;100.00;102312.66;5052869;28;20434;-73
2022/01/26 05:37:20;;;;;;;0.40;0.30;;;;;;;3.79;100.00;102303.41;5052938;28;20520;-73
2022/01/26 05:39:46;;;;;;;0.40;0.20;;;;;;;3.71;100.00;102306.31;5052972;28;20446;-72
2022/01/26 05:42:13;;;;;;;0.40;0.30;;;;;;;3.71;100.00;102306.31;5052986;28;20445;-71
2022/01/26 05:44:39;;;;;;;0.40;0.30;;;;;;;3.72;100.00;102307.97;5052828;28;20584;-71
2022/01/26 05:47:08;;;;;;;0.40;0.30;;;;;;;3.72;100.00;102305.31;5052866;28;20677;-72
2022/01/26 05:49:34;;;;;;;0.40;0.30;;;;;;;3.75;100.00;102307.53;5052573;28;20537;-71
2022/01/26 05:52:01;;;;;;;0.40;0.30;;;;;;;3.78;100.00;102301.75;5052551;28;20948;-71
2022/01/26 05:54:28;;;;;;;0.40;0.30;;;;;;;3.77;100.00;102299.31;5052764;28;20446;-71
2022/01/26 05:56:55;;;;;;;0.40;0.30;;;;;;;3.78;100.00;102300.94;5053071;28;20466;-71
2022/01/26 05:59:21;;;;;;;0.40;0.20;;;;;;;3.80;100.00;102301.53;5054491;28;20454;-72
2022/01/26 06:01:48;;;;;;;0.40;0.30;;;;;;;3.79;100.00;102303.41;5053012;28;20442;-71
2022/01/26 06:04:15;;;;;;;0.40;0.30;;;;;;;3.77;100.00;102300.13;5052989;28;20489;-71
2022/01/26 06:06:41;;;;;;;0.40;0.30;;;;;;;3.72;100.00;102291.91;5052849;28;20474;-71
2022/01/26 06:09:08;;;;;;;0.40;0.20;;;;;;;3.72;100.00;102286.53;5052923;28;20446;-71
2022/01/26 06:11:36;;;;;;;0.40;0.20;;;;;;;3.77;100.00;102291.25;5052904;28;20504;-72
2022/01/26 06:14:02;;;;;;;0.40;0.30;;;;;;;3.76;100.00;102285.09;5055132;28;20852;-71
2022/01/26 06:16:29;;;;;;;0.40;0.20;;;;;;;3.76;100.00;102287.78;5056798;28;20457;-71
2022/01/26 06:18:55;;;;;;;0.40;0.20;;;;;;;3.76;100.00;102287.78;5056838;28;20437;-71
2022/01/26 06:21:22;;;;;;;0.40;0.20;;;;;;;3.79;100.00;102284.63;5056770;28;20445;-71
2022/01/26 06:23:48;;;;;;;0.40;0.20;;;;;;;3.80;100.00;102288.97;5056336;28;21018;-70
2022/01/26 06:26:15;;;;;;;0.40;0.20;;;;;;;3.79;100.00;102295.34;5056307;28;20974;-70
2022/01/26 06:28:42;;;;;;;0.40;0.30;;;;;;;3.79;100.00;102295.34;5056635;28;20563;-70
2022/01/26 06:31:11;;;;;;;0.40;0.30;;;;;;;3.76;100.00;102287.78;5056607;28;20438;-70
2022/01/26 06:33:40;;;;;;;0.40;0.20;;;;;;;3.77;100.00;102289.41;5056201;28;20928;-71
2022/01/26 06:36:06;;;;;;;0.40;0.20;;;;;;;3.75;100.00;102280.75;5056073;28;20513;-71
2022/01/26 06:38:33;;;;;;;0.40;0.20;;;;;;;3.75;100.00;102277.25;5056423;28;20864;-70
2022/01/26 06:41:01;;;;;;;1.30;1.20;;;;;;;3.77;100.00;102277.88;5056483;28;20446;-70
2022/01/26 06:43:30;;;;;;;0.40;0.20;;;;;;;3.80;100.00;102270.19;5056368;28;20438;-71
2022/01/26 06:46:02;;;;;;;0.40;0.30;;;;;;;3.85;100.00;102280.31;5056211;28;20450;-70
2022/01/26 06:48:56;;;;;;;0.40;0.30;;;;;;;3.76;100.00;102278.88;5056307;28;20458;-72
2022/01/26 06:51:23;;;;;;;1.90;1.80;;;;;;;3.77;100.00;102278.69;5055881;28;20948;-72
2022/01/26 06:53:49;;;;;;;0.40;0.20;;;;;;;3.76;100.00;102282.41;5056177;28;20446;-72
2022/01/26 06:56:16;;;;;;;0.40;0.20;;;;;;;3.77;100.00;102278.69;5056016;28;20462;-72
2022/01/26 06:58:42;;;;;;;0.40;0.20;;;;;;;3.74;100.00;102275.59;5056118;28;20438;-71
2022/01/26 07:01:10;;;;;;;0.43;0.37;;;;;;;3.72;100.00;102288.41;5056101;28;20457;-74
2022/01/26 07:03:36;;;;;;;0.40;0.30;;;;;;;3.72;100.00;102280.38;5055866;28;20507;-70
2022/01/26 07:06:03;;;;;;;0.40;0.30;;;;;;;3.76;100.00;102281.56;5055963;28;20465;-71
2022/01/26 07:08:29;;;;;;;0.40;0.20;;;;;;;3.82;100.00;102282.59;5055776;28;20940;-70
2022/01/26 07:10:56;;;;;;;0.40;0.20;;;;;;;3.82;100.00;102285.25;5055976;28;20450;-70
2022/01/26 07:13:23;;;;;;;0.40;0.30;;;;;;;3.77;100.00;102289.41;5055811;28;20465;-70
2022/01/26 07:21:29;;;;;;;0.40;0.23;;;;;;;3.73;100.00;102285.50;5055441;28;20407;-68
2022/01/26 07:23:56;;;;;;;0.40;0.20;;;;;;;3.69;100.00;102288.81;5055536;28;20449;-68
2022/01/26 07:26:26;;;;;;;0.40;0.20;;;;;;;3.76;100.00;102277.03;5054857;28;20462;-68
2022/01/26 07:28:53;;;;;;;0.40;0.27;;;;;;;3.83;100.00;102273.50;5055789;28;20453;-68
2022/01/26 07:31:19;;;;;;;0.40;0.30;;;;;;;3.87;100.00;102269.34;5055401;28;20857;-68
2022/01/26 07:33:52;;;;;;;0.40;0.20;;;;;;;3.92;100.00;102277.56;5055427;28;20453;-68
2022/01/26 07:36:19;;;;;;;0.40;0.30;;;;;;;3.92;100.00;102286.44;5054877;28;20481;-68
2022/01/26 07:38:49;;;;;;;0.40;0.20;;;;;;;3.89;100.00;102288.72;5055305;28;20469;-68
2022/01/26 07:41:15;;;;;;;0.40;0.20;;;;;;;3.89;100.00;102283.34;5055253;28;20457;-68
2022/01/26 07:43:42;;;;;;;0.40;0.30;;;;;;;3.87;100.00;102277.41;5055221;28;20453;-68
2022/01/26 07:46:09;;;;;;;0.40;0.20;;;;;;;3.88;100.00;102281.72;5054703;28;20481;-68
2022/01/26 07:48:35;;;;;;;0.40;0.20;;;;;;;3.84;100.00;102275.13;5055159;28;20465;-68
2022/01/26 07:51:03;;;;;;;0.40;0.30;;;;;;;3.83;100.00;102278.88;5055033;28;20469;-68
2022/01/26 07:53:31;;;;;;;0.40;0.20;;;;;;;3.82;100.00;102271.88;5055027;28;20443;-68
2022/01/26 07:55:58;;;;;;;0.40;0.20;;;;;;;3.83;100.00;102281.53;5054885;28;20472;-73
2022/01/26 07:58:25;;;;;;;0.40;0.30;;;;;;;3.82;100.00;102279.91;5054872;28;20441;-71
2022/01/26 08:00:52;;;;;;;0.47;0.27;;;;;;;3.90;100.00;102274.31;5054848;28;20449;-72
2022/01/26 08:03:19;;;;;;;0.93;0.83;;;;;;;3.87;100.00;102283.56;5054803;28;20434;-71
2022/01/26 08:05:45;;;;;;;0.40;0.30;;;;;;;3.87;100.00;102286.25;5054711;28;20486;-70
2022/01/26 08:08:13;;;;;;;0.40;0.30;;;;;;;3.87;100.00;102290.81;5054762;28;20449;-70
2022/01/26 08:10:40;;;;;;;4.93;2.83;;;;;;;3.88;100.00;102298.63;5055177;28;20446;-70
2022/01/26 08:13:08;;;;;;;0.73;0.73;;;;;;;3.88;100.00;102300.47;5054716;28;20832;-70
2022/01/26 08:15:34;;;;;;;0.50;0.40;;;;;;;3.89;100.00;102291.41;5054592;28;20550;-70
2022/01/26 08:18:03;;;;;;;0.40;0.30;;;;;;;3.88;100.00;102295.13;5054615;28;20442;-71
2022/01/26 08:20:29;;;;;;;0.40;0.30;;;;;;;3.89;100.00;102286.84;5054148;28;20939;-70
2022/01/26 08:22:57;;;;;;;0.40;0.20;;;;;;;3.89;100.00;102294.06;5054574;28;20496;-70
2022/01/26 08:25:25;;;;;;;0.40;0.30;;;;;;;3.87;100.00;102293.47;5054273;28;20573;-70
2022/01/26 08:27:58;;;;;;;0.40;0.30;;;;;;;3.86;100.00;102287.31;5054400;28;20446;-70
2022/01/26 08:30:25;;;;;;;0.40;0.30;;;;;;;3.86;100.00;102279.25;5054472;28;20837;-70
2022/01/26 08:32:52;;;;;;;14.07;2.53;;;;;;;3.80;100.00;102270.19;5054070;28;20442;-70
2022/01/26 08:35:18;;;;;;;0.40;0.23;;;;;;;3.85;100.00;102272.25;5053978;28;20454;-71
2022/01/26 08:37:45;;;;;;;0.40;0.20;;;;;;;3.90;100.00;102276.97;5053070;28;20446;-71
2022/01/26 08:40:12;;;;;;;0.40;0.20;;;;;;;3.87;100.00;102274.72;5053877;28;20949;-71
2022/01/26 08:42:42;;;;;;;0.40;0.20;;;;;;;3.89;100.00;102278.00;5054276;28;20445;-70
2022/01/26 08:45:09;;;;;;;0.40;0.20;;;;;;;3.92;100.00;102264.16;5074051;28;20481;-71
2022/01/26 08:47:36;;;;;;;0.40;0.20;;;;;;;4.00;100.00;102261.25;5073639;28;20461;-71
2022/01/26 08:50:04;;;;;;;0.50;0.40;;;;;;;3.96;100.00;102265.38;5073938;28;20437;-70
2022/01/26 08:52:30;;;;;;;0.40;0.30;;;;;;;3.95;100.00;102271.78;5073915;28;20502;-71
2022/01/26 08:54:56;;;;;;;0.40;0.20;;;;;;;3.97;100.00;102272.38;5073861;28;20816;-72
2022/01/26 08:57:23;;;;;;;0.70;0.70;;;;;;;4.03;100.00;102276.91;5073748;28;20476;-71
2022/01/26 08:59:50;;;;;;;0.40;0.30;;;;;;;4.07;100.00;102288.00;5073805;28;20437;-72
2022/01/26 09:02:17;;;;;;;0.40;0.30;;;;;;;4.04;100.00;102283.91;5073822;28;20824;-74
2022/01/26 09:04:43;;;;;;;0.40;0.30;;;;;;;4.05;100.00;102275.63;5073695;28;20485;-73
2022/01/26 09:07:14;;;;;;;0.40;0.20;;;;;;;4.07;100.00;102283.44;5073683;28;20453;-71
2022/01/26 09:09:45;;;;;;;0.40;0.20;;;;;;;4.07;100.00;102288.81;5073602;28;20429;-70
2022/01/26 09:12:14;;;;;;;0.40;0.30;;;;;;;4.04;100.00;102289.28;5073587;28;20464;-69
2022/01/26 09:14:40;;;;;;;0.40;0.30;;;;;;;4.00;100.00;102288.88;5073555;28;20492;-70
2022/01/26 09:17:10;;;;;;;0.40;0.20;;;;;;;3.99;100.00;102294.47;5073470;28;20480;-71
2022/01/26 09:19:38;;;;;;;0.40;0.20;;;;;;;3.99;100.00;102297.97;5073200;28;20449;-70
2022/01/26 09:22:07;;;;;;;0.40;0.30;;;;;;;4.07;100.00;102290.69;5073426;28;20519;-71
2022/01/26 09:24:35;;;;;;;0.40;0.20;;;;;;;4.05;100.00;102291.72;5073381;28;20440;-72
2022/01/26 09:27:03;;;;;;;0.40;0.20;;;;;;;4.07;100.00;102299.53;5073310;28;20515;-71
2022/01/26 09:29:30;;;;;;;0.40;0.30;;;;;;;4.04;100.00;102295.44;5073358;28;20494;-71
2022/01/26 09:31:57;;;;;;;0.40;0.30;;;;;;;4.04;100.00;102290.09;5073347;28;20433;-71
2022/01/26 09:34:28;;;;;;;0.40;0.23;;;;;;;4.03;100.00;102296.50;5073367;28;20442;-71
2022/01/26 09:36:55;;;;;;;0.40;0.30;;;;;;;4.03;100.00;102284.94;5072861;28;20930;-71
2022/01/26 09:39:23;;;;;;;0.40;0.30;;;;;;;4.00;100.00;102280.00;5072951;28;20943;-71
2022/01/26 09:41:51;;;;;;;0.40;0.20;;;;;;;3.98;100.00;102280.19;5073308;28;20824;-71
2022/01/26 09:44:19;;;;;;;3.80;3.60;;;;;;;4.03;100.00;102291.13;5073190;28;20491;-71
2022/01/26 09:46:46;;;;;;;0.40;0.30;;;;;;;4.07;100.00;102294.19;5073049;28;20485;-71
2022/01/26 09:49:15;;;;;;;0.40;0.30;;;;;;;4.08;100.00;102278.94;5072824;28;20438;-71
2022/01/26 09:51:44;;;;;;;0.40;0.23;;;;;;;3.98;100.00;102287.44;5073139;28;20445;-72
2022/01/26 09:54:14;;;;;;;0.40;0.20;;;;;;;3.98;100.00;102290.09;5072823;28;20456;-71
2022/01/26 09:56:41;;;;;;;0.40;0.20;;;;;;;3.97;100.00;102294.66;5072759;28;20497;-72
2022/01/26 09:59:08;;;;;;;0.40;0.20;;;;;;;3.96;100.00;102297.56;5073137;28;20448;-71
2022/01/26 10:01:42;;;;;;;0.40;0.30;;;;;;;3.94;100.00;102297.78;5072798;28;20821;-71
2022/01/26 10:04:23;;;;;;;0.40;0.30;;;;;;;3.96;100.00;102298.38;5073061;28;20441;-71
2022/01/26 10:07:07;;;;;;;0.40;0.30;;;;;;;4.01;100.00;102295.06;5072932;28;20484;-71
2022/01/26 10:09:47;;;;;;;0.40;0.20;;;;;;;4.03;100.00;102296.50;5073018;28;20433;-71
2022/01/26 10:17:45;;;;;;;0.40;0.20;;;;;;;4.20;100.00;102304.81;5072919;28;20447;-71
2022/01/26 10:20:15;;;;;;;0.40;0.30;;;;;;;4.24;100.00;102297.16;5072879;28;20441;-71
2022/01/26 10:22:43;;;;;;;0.40;0.30;;;;;;;4.36;100.00;102291.94;5072868;28;20468;-71
2022/01/26 10:25:12;;;;;;;0.40;0.20;;;;;;;4.46;100.00;102297.66;5072737;28;20477;-71
2022/01/26 10:27:40;;;;;;;0.40;0.30;;;;;;;4.45;100.00;102296.00;5072976;28;20446;-71
2022/01/26 10:30:09;;;;;;;0.40;0.30;;;;;;;4.46;100.00;102301.16;5072518;28;20433;-71
2022/01/26 10:32:37;;;;;;;0.87;0.80;;;;;;;4.41;100.00;102298.28;5072772;28;20440;-72
2022/01/26 10:35:05;;;;;;;0.40;0.30;;;;;;;4.39;100.00;102291.53;5072551;28;20445;-71
2022/01/26 10:37:32;;;;;;;0.40;0.30;;;;;;;4.34;100.00;102294.84;5072374;28;20868;-71
2022/01/26 10:40:17;;;;;;;0.40;0.20;;;;;;;4.26;100.00;102290.56;5072655;28;20448;-71
2022/01/26 10:42:56;;;;;;;0.40;0.30;;;;;;;4.22;100.00;102292.03;5072474;28;20905;-71
2022/01/26 10:45:36;;;;;;;0.90;0.83;;;;;;;4.25;100.00;102301.50;5072627;28;20845;-71
2022/01/26 10:48:16;;;;;;;0.40;0.20;;;;;;;4.20;100.00;102304.00;5072631;28;20429;-70
2022/01/26 10:51:08;;;;;;;0.40;0.20;;;;;;;4.14;100.00;102316.44;5072594;28;20457;-71
2022/01/26 10:53:40;;;;;;;0.40;0.30;;;;;;;4.03;100.00;102309.06;5072172;28;20445;-72
2022/01/26 10:56:08;;;;;;;0.40;0.30;;;;;;;4.04;100.00;102295.44;5072187;28;20848;-71
2022/01/26 10:58:35;;;;;;;0.40;0.30;;;;;;;4.03;100.00;102293.81;5072556;28;20491;-72
2022/01/26 11:01:02;;;;;;;0.40;0.20;;;;;;;3.97;100.00;102300.00;5074537;28;20842;-70
2022/01/26 11:03:29;;;;;;;0.40;0.20;;;;;;;3.92;100.00;102297.16;5076003;28;20448;-71
2022/01/26 11:05:55;;;;;;;0.40;0.20;;;;;;;3.94;100.00;102304.97;5075978;28;20491;-71
2022/01/26 11:08:24;;;;;;;0.40;0.20;;;;;;;3.91;100.00;102310.78;5075946;28;20445;-71
2022/01/26 11:10:50;;;;;;;0.87;0.87;;;;;;;3.86;100.00;102303.38;5075900;28;20516;-71
2022/01/26 11:13:27;;;;;;;0.40;0.30;;;;;;;3.80;100.00;102304.22;5075490;28;20996;-71
2022/01/26 11:15:54;;;;;;;0.40;0.23;;;;;;;3.79;100.00;102310.63;5075739;28;20500;-71
2022/01/26 11:18:22;;;;;;;0.40;0.20;;;;;;;3.69;100.00;102299.53;5075746;28;20563;-71
2022/01/26 11:20:51;;;;;;;0.40;0.20;;;;;;;3.66;100.00;102298.09;5075735;28;20528;-71
2022/01/26 11:23:19;;;;;;;1.33;1.27;;;;;;;3.62;100.00;102291.50;5075644;28;20474;-71
2022/01/26 11:25:49;;;;;;;0.40;0.23;;;;;;;3.61;100.00;102279.16;5075478;28;20485;-71
2022/01/26 11:28:18;;;;;;;0.40;0.20;;;;;;;3.60;100.00;102282.06;5075606;28;20449;-71
2022/01/26 11:30:46;;;;;;;0.40;0.20;;;;;;;3.59;100.00;102286.59;5075557;28;20437;-71
2022/01/26 11:33:16;;;;;;;0.40;0.20;;;;;;;3.57;100.00;102288.66;5075474;28;20448;-71
2022/01/26 11:35:46;;;;;;;0.40;0.30;;;;;;;3.53;100.00;102290.09;5075148;28;20477;-71
2022/01/26 11:38:50;;;;;;;0.40;0.33;;;;;;;3.47;100.00;102282.94;5075356;28;20789;-71
2022/01/26 11:46:58;;;;;;;0.40;0.20;;;;;;;3.48;100.00;102271.19;5075011;28;20488;-71
2022/01/26 11:49:27;;;;;;;0.40;0.20;;;;;;;3.40;100.00;102264.19;5075235;28;20444;-71
2022/01/26 11:51:57;;;;;;;0.40;0.30;;;;;;;3.38;100.00;102266.28;5074842;28;20441;-71
2022/01/26 11:54:25;;;;;;;0.40;0.20;;;;;;;3.42;100.00;102264.81;5075038;28;20445;-71
2022/01/26 11:57:04;;;;;;;0.40;0.20;;;;;;;3.43;100.00;102261.09;5074951;28;20465;-71
2022/01/26 11:59:33;;;;;;;0.40;0.20;;;;;;;3.36;100.00;102252.25;5076266;28;20437;-71
2022/01/26 12:02:04;;;;;;;0.40;0.20;;;;;;;3.32;100.00;102253.75;5074916;28;20555;-71
2022/01/26 12:04:35;;;;;;;0.40;0.20;;;;;;;3.31;100.00;102245.91;5074874;28;20483;-71
2022/01/26 12:07:17;;;;;;;0.40;0.30;;;;;;;3.31;100.00;102241.34;5074648;28;20530;-71
2022/01/26 12:09:44;;;;;;;0.40;0.20;;;;;;;3.25;100.00;102243.03;5074730;28;20434;-70
2022/01/26 12:12:17;;;;;;;0.40;0.30;;;;;;;3.22;100.00;102237.28;5074607;28;20443;-71
2022/01/26 12:14:46;;;;;;;0.40;0.30;;;;;;;3.21;100.00;102241.81;5074375;28;20430;-71
2022/01/26 12:17:25;;;;;;;0.40;0.30;;;;;;;3.24;100.00;102236.03;5074556;28;20461;-70
2022/01/26 12:20:10;;;;;;;0.40;0.30;;;;;;;3.26;100.00;102233.13;5074562;28;20486;-72
2022/01/26 12:34:01;;;;;;;0.40;0.30;;;;;;;3.28;100.00;102207.81;5074271;28;20409;-71
2022/01/26 12:36:39;;;;;;;0.77;0.77;;;;;;;3.25;100.00;102194.84;5073797;28;20469;-70
2022/01/26 12:39:11;;;;;;;0.40;0.30;;;;;;;3.22;100.00;102189.91;5074168;28;20492;-70
2022/01/26 12:41:45;;;;;;;0.40;0.27;;;;;;;3.23;100.00;102191.56;5074004;28;20437;-70
2022/01/26 12:44:13;;;;;;;0.40;0.30;;;;;;;3.23;100.00;102180.84;5065908;28;20456;-73
2022/01/26 12:46:40;;;;;;;0.40;0.20;;;;;;;3.23;100.00;102196.06;5053966;28;20482;-71
2022/01/26 12:49:13;;;;;;;0.40;0.20;;;;;;;3.19;100.00;102190.34;5054229;28;20446;-71
2022/01/26 12:51:42;;;;;;;0.40;0.20;;;;;;;3.15;100.00;102183.75;5054003;28;20487;-71
2022/01/26 12:54:09;;;;;;;0.40;0.27;;;;;;;3.15;100.00;102189.13;5053978;28;20442;-71
2022/01/26 12:56:36;;;;;;;0.40;0.30;;;;;;;3.15;100.00;102194.47;5053609;28;20446;-72